createdAt,value
2018-11-21T00:00:41.035Z,2.84
2018-11-21T00:01:40.790Z,2.83
2018-11-21T00:02:40.888Z,2.77
2018-11-21T00:03:41.044Z,2.8
2018-11-21T00:04:40.745Z,2.79
2018-11-21T00:05:40.724Z,2.8
2018-11-21T00:06:40.709Z,2.79
2018-11-21T00:07:40.748Z,2.77
2018-11-21T00:08:41.014Z,2.76
2018-11-21T00:09:40.734Z,2.77
2018-11-21T00:10:40.699Z,2.77
2018-11-21T00:11:40.717Z,2.76
2018-11-21T00:12:40.697Z,2.76
2018-11-21T00:13:40.727Z,2.77
2018-11-21T00:14:40.751Z,2.77
2018-11-21T00:15:40.867Z,2.75
2018-11-21T00:16:40.853Z,2.76
2018-11-21T00:17:40.811Z,2.76
2018-11-21T00:18:40.695Z,2.77
2018-11-21T00:19:40.875Z,2.76
2018-11-21T00:20:41.121Z,2.75
2018-11-21T00:21:40.956Z,2.76
2018-11-21T00:22:41.074Z,2.75
2018-11-21T00:23:40.958Z,2.75
2018-11-21T00:24:40.725Z,2.75
2018-11-21T00:25:41.015Z,2.73
2018-11-21T00:26:41.162Z,2.72
2018-11-21T00:27:40.756Z,2.71
2018-11-21T00:28:40.739Z,2.71
2018-11-21T00:29:40.754Z,2.71
2018-11-21T00:30:40.778Z,2.73
2018-11-21T00:31:40.938Z,2.71
2018-11-21T00:32:40.997Z,2.71
2018-11-21T00:33:40.729Z,2.71
2018-11-21T00:34:40.747Z,2.66
2018-11-21T00:35:40.717Z,2.68
2018-11-21T00:36:41.033Z,2.66
2018-11-21T00:37:40.734Z,2.68
2018-11-21T00:38:40.699Z,2.65
2018-11-21T00:39:40.911Z,2.65
2018-11-21T00:40:41.025Z,2.65
2018-11-21T00:41:40.759Z,2.66
2018-11-21T00:42:46.796Z,2.65
2018-11-21T00:43:40.734Z,2.64
2018-11-21T00:44:40.816Z,2.62
2018-11-21T00:45:40.700Z,2.59
2018-11-21T00:46:40.997Z,2.61
2018-11-21T00:47:40.841Z,2.59
2018-11-21T00:48:40.712Z,2.59
2018-11-21T00:49:40.900Z,2.59
2018-11-21T00:50:40.809Z,2.59
2018-11-21T00:51:40.809Z,2.58
2018-11-21T00:52:40.716Z,2.59
2018-11-21T00:53:40.645Z,2.56
2018-11-21T00:54:40.784Z,2.59
2018-11-21T00:55:40.658Z,2.62
2018-11-21T00:56:40.866Z,2.62
2018-11-21T00:57:40.808Z,2.61
2018-11-21T00:58:40.775Z,2.59
2018-11-21T00:59:40.805Z,2.59
2018-11-21T01:00:40.710Z,2.58
2018-11-21T01:01:40.780Z,2.62
2018-11-21T01:02:40.668Z,2.58
2018-11-21T01:03:40.707Z,2.59
2018-11-21T01:04:40.735Z,2.61
2018-11-21T01:05:40.787Z,2.59
2018-11-21T01:06:40.794Z,2.58
2018-11-21T01:07:40.656Z,2.56
2018-11-21T01:08:40.751Z,2.58
2018-11-21T01:09:40.697Z,2.58
2018-11-21T01:10:40.625Z,2.58
2018-11-21T01:11:40.630Z,2.59
2018-11-21T01:12:40.968Z,2.56
2018-11-21T01:13:40.679Z,2.56
2018-11-21T01:14:40.707Z,2.61
2018-11-21T01:15:40.737Z,2.58
2018-11-21T01:16:41.472Z,2.58
2018-11-21T01:17:40.602Z,2.55
2018-11-21T01:18:40.673Z,2.58
2018-11-21T01:19:40.648Z,2.59
2018-11-21T01:20:40.974Z,2.56
2018-11-21T01:21:40.638Z,2.56
2018-11-21T01:22:40.904Z,2.56
2018-11-21T01:23:40.768Z,2.54
2018-11-21T01:24:40.749Z,2.55
2018-11-21T01:25:40.768Z,2.56
2018-11-21T01:26:40.781Z,2.56
2018-11-21T01:27:40.718Z,2.55
2018-11-21T01:28:40.679Z,2.54
2018-11-21T01:29:40.608Z,2.54
2018-11-21T01:30:40.612Z,2.58
2018-11-21T01:31:40.670Z,2.54
2018-11-21T01:32:40.681Z,2.54
2018-11-21T01:33:40.618Z,2.52
2018-11-21T01:34:40.623Z,2.54
2018-11-21T01:35:40.601Z,2.55
2018-11-21T01:36:40.880Z,2.52
2018-11-21T01:37:40.645Z,2.52
2018-11-21T01:38:40.607Z,2.49
2018-11-21T01:39:40.661Z,2.49
2018-11-21T01:40:40.740Z,2.48
2018-11-21T01:41:40.620Z,2.51
2018-11-21T01:42:41.675Z,2.51
2018-11-21T01:43:40.604Z,2.55
2018-11-21T01:44:40.735Z,2.55
2018-11-21T01:45:40.701Z,2.49
2018-11-21T01:46:40.884Z,2.54
2018-11-21T01:47:40.661Z,2.51
2018-11-21T01:48:40.556Z,2.52
2018-11-21T01:49:40.614Z,2.49
2018-11-21T01:50:40.632Z,2.51
2018-11-21T01:51:40.580Z,2.48
2018-11-21T01:52:40.744Z,2.51
2018-11-21T01:53:40.598Z,2.52
2018-11-21T01:54:40.582Z,2.54
2018-11-21T01:55:40.773Z,2.56
2018-11-21T01:56:40.645Z,2.55
2018-11-21T01:57:40.734Z,2.54
2018-11-21T01:58:40.553Z,2.54
2018-11-21T01:59:40.774Z,2.56
2018-11-21T02:00:40.681Z,2.52
2018-11-21T02:01:41.400Z,2.51
2018-11-21T02:02:40.707Z,2.49
2018-11-21T02:03:40.822Z,2.51
2018-11-21T02:04:41.078Z,2.47
2018-11-21T02:05:40.745Z,2.49
2018-11-21T02:06:40.612Z,2.49
2018-11-21T02:07:40.830Z,2.48
2018-11-21T02:08:40.781Z,2.47
2018-11-21T02:09:40.573Z,2.49
2018-11-21T02:10:40.696Z,2.51
2018-11-21T02:11:40.848Z,2.48
2018-11-21T02:12:40.593Z,2.45
2018-11-21T02:13:40.631Z,2.45
2018-11-21T02:14:41.396Z,2.45
2018-11-21T02:15:40.747Z,2.43
2018-11-21T02:16:40.737Z,2.41
2018-11-21T02:17:40.638Z,2.41
2018-11-21T02:18:40.666Z,2.4
2018-11-21T02:19:40.652Z,2.38
2018-11-21T02:20:40.787Z,2.38
2018-11-21T02:21:40.988Z,2.37
2018-11-21T02:22:40.573Z,2.41
2018-11-21T02:23:40.600Z,2.38
2018-11-21T02:24:40.966Z,2.41
2018-11-21T02:25:40.532Z,2.43
2018-11-21T02:26:40.899Z,2.38
2018-11-21T02:27:40.589Z,2.37
2018-11-21T02:28:40.608Z,2.37
2018-11-21T02:29:40.740Z,2.38
2018-11-21T02:30:40.638Z,2.37
2018-11-21T02:31:40.648Z,2.36
2018-11-21T02:32:40.785Z,2.37
2018-11-21T02:33:40.573Z,2.37
2018-11-21T02:34:40.547Z,2.38
2018-11-21T02:35:40.563Z,2.37
2018-11-21T02:36:40.584Z,2.36
2018-11-21T02:37:40.690Z,2.37
2018-11-21T02:38:40.672Z,2.37
2018-11-21T02:39:40.574Z,2.37
2018-11-21T02:40:40.787Z,2.4
2018-11-21T02:41:40.786Z,2.37
2018-11-21T02:42:40.619Z,2.37
2018-11-21T02:43:40.649Z,2.37
2018-11-21T02:44:40.683Z,2.38
2018-11-21T02:45:40.686Z,2.38
2018-11-21T02:46:40.598Z,2.37
2018-11-21T02:47:40.588Z,2.37
2018-11-21T02:48:40.543Z,2.37
2018-11-21T02:49:40.588Z,2.34
2018-11-21T02:50:40.512Z,2.34
2018-11-21T02:51:40.974Z,2.34
2018-11-21T02:52:40.553Z,2.34
2018-11-21T02:53:40.882Z,2.36
2018-11-21T02:54:40.799Z,2.34
2018-11-21T02:55:40.592Z,2.37
2018-11-21T02:56:40.528Z,2.37
2018-11-21T02:57:40.488Z,2.36
2018-11-21T02:58:40.543Z,2.37
2018-11-21T02:59:40.513Z,2.36
2018-11-21T03:00:40.674Z,2.36
2018-11-21T03:01:40.585Z,2.34
2018-11-21T03:02:40.599Z,2.37
2018-11-21T03:03:40.665Z,2.36
2018-11-21T03:04:40.551Z,2.37
2018-11-21T03:05:40.800Z,2.4
2018-11-21T03:06:40.565Z,2.38
2018-11-21T03:07:40.621Z,2.4
2018-11-21T03:08:40.523Z,2.38
2018-11-21T03:09:40.478Z,2.4
2018-11-21T03:10:40.547Z,2.37
2018-11-21T03:11:40.516Z,2.4
2018-11-21T03:12:40.520Z,2.37
2018-11-21T03:13:40.565Z,2.4
2018-11-21T03:14:40.454Z,2.37
2018-11-21T03:15:40.485Z,2.38
2018-11-21T03:16:40.837Z,2.37
2018-11-21T03:17:40.489Z,2.41
2018-11-21T03:18:40.494Z,2.4
2018-11-21T03:19:40.487Z,2.4
2018-11-21T03:20:40.511Z,2.4
2018-11-21T03:21:40.549Z,2.38
2018-11-21T03:22:40.947Z,2.37
2018-11-21T03:23:40.466Z,2.34
2018-11-21T03:24:40.488Z,2.37
2018-11-21T03:25:40.529Z,2.4
2018-11-21T03:26:40.446Z,2.4
2018-11-21T03:27:40.480Z,2.4
2018-11-21T03:28:40.566Z,2.41
2018-11-21T03:29:40.476Z,2.41
2018-11-21T03:30:40.560Z,2.41
2018-11-21T03:31:40.476Z,2.41
2018-11-21T03:32:40.587Z,2.38
2018-11-21T03:33:40.484Z,2.41
2018-11-21T03:34:40.451Z,2.43
2018-11-21T03:35:40.528Z,2.38
2018-11-21T03:36:40.461Z,2.4
2018-11-21T03:37:40.571Z,2.4
2018-11-21T03:38:40.435Z,2.41
2018-11-21T03:39:40.915Z,2.37
2018-11-21T03:40:40.698Z,2.36
2018-11-21T03:41:40.410Z,2.36
2018-11-21T03:42:40.780Z,2.38
2018-11-21T03:43:40.635Z,2.36
2018-11-21T03:44:40.496Z,2.37
2018-11-21T03:45:40.606Z,2.34
2018-11-21T03:46:40.451Z,2.33
2018-11-21T03:47:40.722Z,2.31
2018-11-21T03:48:40.527Z,2.33
2018-11-21T03:49:40.654Z,2.3
2018-11-21T03:50:40.419Z,2.28
2018-11-21T03:51:40.521Z,2.26
2018-11-21T03:52:40.420Z,2.28
2018-11-21T03:53:40.399Z,2.28
2018-11-21T03:54:40.477Z,2.26
2018-11-21T03:55:40.684Z,2.27
2018-11-21T03:56:40.816Z,2.27
2018-11-21T03:57:40.533Z,2.27
2018-11-21T03:58:40.403Z,2.27
2018-11-21T03:59:40.374Z,2.27
2018-11-21T04:00:40.484Z,2.26
2018-11-21T04:01:40.413Z,2.28
2018-11-21T04:02:40.466Z,2.24
2018-11-21T04:03:40.401Z,2.22
2018-11-21T04:04:40.549Z,2.26
2018-11-21T04:05:40.505Z,2.27
2018-11-21T04:06:40.653Z,2.27
2018-11-21T04:07:40.679Z,2.26
2018-11-21T04:08:42.877Z,2.27
2018-11-21T04:09:40.608Z,2.27
2018-11-21T04:10:40.490Z,2.26
2018-11-21T04:11:40.522Z,2.22
2018-11-21T04:12:40.616Z,2.24
2018-11-21T04:13:40.780Z,2.24
2018-11-21T04:14:40.396Z,2.27
2018-11-21T04:15:40.433Z,2.26
2018-11-21T04:16:40.456Z,2.26
2018-11-21T04:17:40.399Z,2.26
2018-11-21T04:18:40.535Z,2.27
2018-11-21T04:19:40.556Z,2.26
2018-11-21T04:20:40.417Z,2.27
2018-11-21T04:21:40.428Z,2.26
2018-11-21T04:22:40.435Z,2.26
2018-11-21T04:23:40.518Z,2.26
2018-11-21T04:24:40.461Z,2.22
2018-11-21T04:25:40.461Z,2.21
2018-11-21T04:26:40.406Z,2.22
2018-11-21T04:27:40.630Z,2.22
2018-11-21T04:28:40.517Z,2.24
2018-11-21T04:29:40.407Z,2.22
2018-11-21T04:30:40.429Z,2.26
2018-11-21T04:31:40.768Z,2.21
2018-11-21T04:32:40.452Z,2.24
2018-11-21T04:33:40.568Z,2.21
2018-11-21T04:34:40.547Z,2.24
2018-11-21T04:35:40.514Z,2.22
2018-11-21T04:36:40.667Z,2.24
2018-11-21T04:37:40.572Z,2.22
2018-11-21T04:38:40.442Z,2.22
2018-11-21T04:39:40.731Z,2.22
2018-11-21T04:40:40.578Z,2.22
2018-11-21T04:41:40.466Z,2.21
2018-11-21T04:42:40.607Z,2.2
2018-11-21T04:43:40.370Z,2.26
2018-11-21T04:44:40.428Z,2.24
2018-11-21T04:45:40.742Z,2.22
2018-11-21T04:46:40.343Z,2.21
2018-11-21T04:47:40.360Z,2.24
2018-11-21T04:48:40.442Z,2.21
2018-11-21T04:49:40.346Z,2.22
2018-11-21T04:50:40.433Z,2.2
2018-11-21T04:51:40.382Z,2.21
2018-11-21T04:52:40.411Z,2.17
2018-11-21T04:53:40.418Z,2.17
2018-11-21T04:54:40.372Z,2.17
2018-11-21T04:55:40.452Z,2.14
2018-11-21T04:56:40.352Z,2.16
2018-11-21T04:57:40.347Z,2.14
2018-11-21T04:58:40.379Z,2.16
2018-11-21T04:59:40.326Z,2.14
2018-11-21T05:00:40.555Z,2.11
2018-11-21T05:01:40.336Z,2.13
2018-11-21T05:02:40.343Z,2.14
2018-11-21T05:03:40.349Z,2.17
2018-11-21T05:04:40.321Z,2.16
2018-11-21T05:05:40.713Z,2.16
2018-11-21T05:06:40.347Z,2.14
2018-11-21T05:07:40.310Z,2.14
2018-11-21T05:08:40.383Z,2.16
2018-11-21T05:09:40.305Z,2.13
2018-11-21T05:10:41.168Z,2.16
2018-11-21T05:11:40.399Z,2.14
2018-11-21T05:12:40.510Z,2.13
2018-11-21T05:13:40.316Z,2.13
2018-11-21T05:14:40.416Z,2.13
2018-11-21T05:15:40.362Z,2.09
2018-11-21T05:16:40.269Z,2.1
2018-11-21T05:17:41.183Z,2.1
2018-11-21T05:18:40.401Z,2.17
2018-11-21T05:19:40.345Z,2.14
2018-11-21T05:20:40.618Z,2.11
2018-11-21T05:21:40.505Z,2.13
2018-11-21T05:22:40.530Z,2.11
2018-11-21T05:23:40.337Z,2.09
2018-11-21T05:24:40.420Z,2.1
2018-11-21T05:25:40.377Z,2.09
2018-11-21T05:26:40.362Z,2.1
2018-11-21T05:27:40.308Z,2.11
2018-11-21T05:28:40.477Z,2.1
2018-11-21T05:29:40.509Z,2.11
2018-11-21T05:30:40.491Z,2.13
2018-11-21T05:31:40.534Z,2.11
2018-11-21T05:32:40.648Z,2.14
2018-11-21T05:33:40.476Z,2.14
2018-11-21T05:34:40.401Z,2.16
2018-11-21T05:35:40.347Z,2.18
2018-11-21T05:36:40.433Z,2.17
2018-11-21T05:37:40.420Z,2.16
2018-11-21T05:38:40.370Z,2.13
2018-11-21T05:39:40.351Z,2.13
2018-11-21T05:40:40.478Z,2.14
2018-11-21T05:41:40.317Z,2.14
2018-11-21T05:42:40.323Z,2.1
2018-11-21T05:43:40.344Z,2.14
2018-11-21T05:44:40.291Z,2.14
2018-11-21T05:45:40.428Z,2.16
2018-11-21T05:46:40.381Z,2.14
2018-11-21T05:47:40.471Z,2.14
2018-11-21T05:48:40.332Z,2.13
2018-11-21T05:49:40.266Z,2.13
2018-11-21T05:50:40.581Z,2.14
2018-11-21T05:51:40.431Z,2.13
2018-11-21T05:52:40.268Z,2.16
2018-11-21T05:53:40.471Z,2.13
2018-11-21T05:54:40.431Z,2.13
2018-11-21T05:55:40.450Z,2.16
2018-11-21T05:56:40.292Z,2.1
2018-11-21T05:57:40.612Z,2.09
2018-11-21T05:58:40.323Z,2.11
2018-11-21T05:59:40.385Z,2.09
2018-11-21T06:00:40.338Z,2.13
2018-11-21T06:01:40.332Z,2.1
2018-11-21T06:02:40.432Z,2.1
2018-11-21T06:03:40.321Z,2.09
2018-11-21T06:04:40.326Z,2.1
2018-11-21T06:05:40.297Z,2.11
2018-11-21T06:06:40.201Z,2.17
2018-11-21T06:07:40.414Z,2.17
2018-11-21T06:08:40.230Z,2.2
2018-11-21T06:09:40.274Z,2.2
2018-11-21T06:10:40.301Z,2.26
2018-11-21T06:11:40.525Z,2.26
2018-11-21T06:12:40.262Z,2.26
2018-11-21T06:13:40.216Z,2.26
2018-11-21T06:14:40.275Z,2.22
2018-11-21T06:15:40.213Z,2.28
2018-11-21T06:16:40.425Z,2.3
2018-11-21T06:17:40.261Z,2.26
2018-11-21T06:18:40.509Z,2.31
2018-11-21T06:19:40.260Z,2.31
2018-11-21T06:20:40.502Z,2.37
2018-11-21T06:21:40.305Z,2.41
2018-11-21T06:22:40.191Z,2.38
2018-11-21T06:23:40.470Z,2.43
2018-11-21T06:24:40.236Z,2.4
2018-11-21T06:25:40.456Z,2.37
2018-11-21T06:26:40.194Z,2.34
2018-11-21T06:27:40.208Z,2.31
2018-11-21T06:28:40.762Z,2.3
2018-11-21T06:29:40.198Z,2.27
2018-11-21T06:30:40.179Z,2.34
2018-11-21T06:31:40.229Z,2.3
2018-11-21T06:32:40.238Z,2.33
2018-11-21T06:33:40.199Z,2.26
2018-11-21T06:34:40.191Z,2.26
2018-11-21T06:35:40.223Z,2.28
2018-11-21T06:36:40.565Z,2.26
2018-11-21T06:37:40.235Z,2.22
2018-11-21T06:38:40.185Z,2.24
2018-11-21T06:39:40.627Z,2.18
2018-11-21T06:40:40.183Z,2.14
2018-11-21T06:41:40.230Z,2.16
2018-11-21T06:42:40.174Z,2.13
2018-11-21T06:43:40.194Z,2.11
2018-11-21T06:44:40.440Z,2.09
2018-11-21T06:45:40.416Z,2.04
2018-11-21T06:46:40.264Z,2.01
2018-11-21T06:47:40.193Z,2.03
2018-11-21T06:48:40.361Z,2.01
2018-11-21T06:49:40.496Z,2.01
2018-11-21T06:50:40.326Z,1.99
2018-11-21T06:51:40.769Z,2
2018-11-21T06:52:40.159Z,1.94
2018-11-21T06:53:40.197Z,1.93
2018-11-21T06:54:40.223Z,1.92
2018-11-21T06:55:40.307Z,1.93
2018-11-21T06:56:40.425Z,1.94
2018-11-21T06:57:40.485Z,1.93
2018-11-21T06:58:40.334Z,1.9
2018-11-21T06:59:40.366Z,1.92
2018-11-21T07:00:40.177Z,1.89
2018-11-21T07:01:40.250Z,1.87
2018-11-21T07:02:40.261Z,1.87
2018-11-21T07:03:40.543Z,1.86
2018-11-21T07:04:40.677Z,1.92
2018-11-21T07:05:40.344Z,1.9
2018-11-21T07:06:40.458Z,1.92
2018-11-21T07:07:40.376Z,1.96
2018-11-21T07:08:40.166Z,1.96
2018-11-21T07:09:40.483Z,1.9
2018-11-21T07:10:40.260Z,1.86
2018-11-21T07:11:40.116Z,1.83
2018-11-21T07:12:40.366Z,1.83
2018-11-21T07:13:40.281Z,1.81
2018-11-21T07:14:40.394Z,1.82
2018-11-21T07:15:40.145Z,1.82
2018-11-21T07:16:40.193Z,1.81
2018-11-21T07:17:40.261Z,1.82
2018-11-21T07:18:40.364Z,1.78
2018-11-21T07:19:40.162Z,1.79
2018-11-21T07:20:40.200Z,1.78
2018-11-21T07:21:40.458Z,1.79
2018-11-21T07:22:40.120Z,1.76
2018-11-21T07:23:40.179Z,1.78
2018-11-21T07:24:40.205Z,1.81
2018-11-21T07:25:40.339Z,1.79
2018-11-21T07:26:40.603Z,1.79
2018-11-21T07:27:40.418Z,1.85
2018-11-21T07:28:40.200Z,1.83
2018-11-21T07:29:40.316Z,1.79
2018-11-21T07:30:40.291Z,1.79
2018-11-21T07:31:40.619Z,1.83
2018-11-21T07:32:40.547Z,1.82
2018-11-21T07:33:46.570Z,1.86
2018-11-21T07:34:40.160Z,1.89
2018-11-21T07:35:40.160Z,1.89
2018-11-21T07:36:40.197Z,1.87
2018-11-21T07:37:40.145Z,1.86
2018-11-21T07:38:40.146Z,1.87
2018-11-21T07:39:40.196Z,1.87
2018-11-21T07:40:40.374Z,1.87
2018-11-21T07:41:40.164Z,1.87
2018-11-21T07:42:40.405Z,2
2018-11-21T07:43:40.975Z,1.94
2018-11-21T07:44:40.373Z,1.94
2018-11-21T07:45:40.285Z,1.93
2018-11-21T07:46:40.307Z,1.94
2018-11-21T07:47:40.196Z,1.99
2018-11-21T07:48:40.136Z,2
2018-11-21T07:49:40.972Z,1.96
2018-11-21T07:50:40.339Z,1.97
2018-11-21T07:51:40.175Z,1.99
2018-11-21T07:52:40.142Z,1.97
2018-11-21T07:53:40.129Z,1.97
2018-11-21T07:54:40.143Z,1.97
2018-11-21T07:55:40.445Z,2.01
2018-11-21T07:56:40.131Z,1.99
2018-11-21T07:57:40.280Z,2.07
2018-11-21T07:58:40.119Z,2.1
2018-11-21T07:59:40.125Z,2.1
2018-11-21T08:00:40.112Z,2.11
2018-11-21T08:01:40.349Z,2.09
2018-11-21T08:02:40.187Z,2.14
2018-11-21T08:03:40.282Z,2.14
2018-11-21T08:04:40.096Z,2.13
2018-11-21T08:05:44.600Z,2.16
2018-11-21T08:06:40.281Z,2.14
2018-11-21T08:07:40.376Z,2.16
2018-11-21T08:08:40.085Z,2.18
2018-11-21T08:09:40.126Z,2.14
2018-11-21T08:10:40.163Z,2.17
2018-11-21T08:11:40.200Z,2.2
2018-11-21T08:12:40.111Z,2.2
2018-11-21T08:13:40.119Z,2.2
2018-11-21T08:14:40.129Z,2.18
2018-11-21T08:15:40.061Z,2.2
2018-11-21T08:16:40.108Z,2.2
2018-11-21T08:17:40.456Z,2.26
2018-11-21T08:18:40.190Z,2.26
2018-11-21T08:19:40.161Z,2.22
2018-11-21T08:20:40.476Z,2.24
2018-11-21T08:21:40.073Z,2.26
2018-11-21T08:22:40.285Z,2.24
2018-11-21T08:23:40.102Z,2.24
2018-11-21T08:24:40.534Z,2.24
2018-11-21T08:25:40.046Z,2.27
2018-11-21T08:26:40.286Z,2.27
2018-11-21T08:27:40.365Z,2.3
2018-11-21T08:28:40.304Z,2.31
2018-11-21T08:29:40.718Z,2.33
2018-11-21T08:30:40.351Z,2.37
2018-11-21T08:31:40.278Z,2.38
2018-11-21T08:32:40.183Z,2.37
2018-11-21T08:33:40.089Z,2.43
2018-11-21T08:34:40.138Z,2.38
2018-11-21T08:35:40.270Z,2.4
2018-11-21T08:36:40.150Z,2.37
2018-11-21T08:37:40.219Z,2.38
2018-11-21T08:38:40.225Z,2.38
2018-11-21T08:39:40.408Z,2.41
2018-11-21T08:40:40.055Z,2.44
2018-11-21T08:41:40.518Z,2.44
2018-11-21T08:42:40.061Z,2.44
2018-11-21T08:43:40.377Z,2.48
2018-11-21T08:44:40.336Z,2.45
2018-11-21T08:45:40.146Z,2.45
2018-11-21T08:46:40.122Z,2.44
2018-11-21T08:47:40.234Z,2.47
2018-11-21T08:48:40.038Z,2.48
2018-11-21T08:49:40.018Z,2.47
2018-11-21T08:50:40.007Z,2.48
2018-11-21T08:51:40.227Z,2.48
2018-11-21T08:52:40.245Z,2.48
2018-11-21T08:53:40.053Z,2.48
2018-11-21T08:54:40.164Z,2.49
2018-11-21T08:55:40.284Z,2.47
2018-11-21T08:56:40.069Z,2.45
2018-11-21T08:57:40.443Z,2.44
2018-11-21T08:58:40.272Z,2.41
2018-11-21T08:59:40.226Z,2.44
2018-11-21T09:00:40.056Z,2.43
2018-11-21T09:01:40.445Z,2.44
2018-11-21T09:02:40.044Z,2.44
2018-11-21T09:03:39.988Z,2.4
2018-11-21T09:04:40.059Z,2.4
2018-11-21T09:05:40.099Z,2.41
2018-11-21T09:06:40.463Z,2.4
2018-11-21T09:07:39.979Z,2.38
2018-11-21T09:08:40.125Z,2.43
2018-11-21T09:09:40.053Z,2.43
2018-11-21T09:10:40.161Z,2.47
2018-11-21T09:11:40.111Z,2.49
2018-11-21T09:12:40.059Z,2.51
2018-11-21T09:13:40.073Z,2.51
2018-11-21T09:14:40.338Z,2.51
2018-11-21T09:15:40.339Z,2.51
2018-11-21T09:16:40.811Z,2.55
2018-11-21T09:17:40.031Z,2.55
2018-11-21T09:18:40.151Z,2.58
2018-11-21T09:19:40.046Z,2.58
2018-11-21T09:20:40.102Z,2.59
2018-11-21T09:21:40.297Z,2.59
2018-11-21T09:22:39.965Z,2.59
2018-11-21T09:23:40.132Z,2.62
2018-11-21T09:24:40.052Z,2.64
2018-11-21T09:25:40.068Z,2.65
2018-11-21T09:26:40.157Z,2.64
2018-11-21T09:27:39.950Z,2.64
2018-11-21T09:28:40.057Z,2.62
2018-11-21T09:29:40.033Z,2.64
2018-11-21T09:30:40.132Z,2.64
2018-11-21T09:31:39.951Z,2.66
2018-11-21T09:32:39.995Z,2.64
2018-11-21T09:33:40.338Z,2.69
2018-11-21T09:34:40.043Z,2.71
2018-11-21T09:35:39.987Z,2.69
2018-11-21T09:36:40.099Z,2.71
2018-11-21T09:37:40.019Z,2.73
2018-11-21T09:38:40.107Z,2.76
2018-11-21T09:39:40.020Z,2.75
2018-11-21T09:40:39.954Z,2.76
2018-11-21T09:41:40.015Z,2.79
2018-11-21T09:42:39.937Z,2.83
2018-11-21T09:43:39.976Z,2.83
2018-11-21T09:44:39.936Z,2.87
2018-11-21T09:45:40.002Z,2.86
2018-11-21T09:46:39.936Z,2.84
2018-11-21T09:47:39.968Z,2.84
2018-11-21T09:48:40.081Z,2.86
2018-11-21T09:49:40.018Z,2.84
2018-11-21T09:50:39.998Z,2.9
2018-11-21T09:51:39.918Z,2.9
2018-11-21T09:52:40.656Z,2.87
2018-11-21T09:53:39.931Z,2.9
2018-11-21T09:54:39.947Z,2.96
2018-11-21T09:55:40.680Z,2.96
2018-11-21T09:56:40.143Z,2.93
2018-11-21T09:57:40.021Z,2.94
2018-11-21T09:58:40.307Z,2.94
2018-11-21T09:59:40.150Z,2.96
2018-11-21T10:00:40.178Z,2.94
2018-11-21T10:01:40.049Z,2.97
2018-11-21T10:02:40.345Z,2.99
2018-11-21T10:03:40.159Z,2.99
2018-11-21T10:04:40.016Z,3.01
2018-11-21T10:05:40.053Z,3.01
2018-11-21T10:06:39.891Z,3.06
2018-11-21T10:07:40.177Z,3.06
2018-11-21T10:08:40.113Z,3.06
2018-11-21T10:09:39.956Z,3.04
2018-11-21T10:10:39.979Z,3.06
2018-11-21T10:11:40.003Z,3.04
2018-11-21T10:12:40.380Z,3.08
2018-11-21T10:13:40.045Z,3.08
2018-11-21T10:14:40.030Z,3.1
2018-11-21T10:15:40.217Z,3.12
2018-11-21T10:16:39.979Z,3.15
2018-11-21T10:17:39.981Z,3.15
2018-11-21T10:18:40.125Z,3.15
2018-11-21T10:19:39.962Z,3.2
2018-11-21T10:20:40.114Z,3.21
2018-11-21T10:21:39.896Z,3.18
2018-11-21T10:22:39.974Z,3.15
2018-11-21T10:23:40.305Z,3.15
2018-11-21T10:24:39.876Z,3.18
2018-11-21T10:25:39.993Z,3.18
2018-11-21T10:26:40.255Z,3.21
2018-11-21T10:27:40.524Z,3.12
2018-11-21T10:28:40.086Z,3.12
2018-11-21T10:29:40.043Z,3.14
2018-11-21T10:30:40.096Z,3.1
2018-11-21T10:31:40.037Z,3.11
2018-11-21T10:32:39.999Z,3.03
2018-11-21T10:33:39.898Z,3.06
2018-11-21T10:34:40.146Z,3.1
2018-11-21T10:35:39.918Z,3.1
2018-11-21T10:36:40.204Z,3.1
2018-11-21T10:37:39.959Z,3.11
2018-11-21T10:38:40.163Z,3.14
2018-11-21T10:39:39.974Z,3.12
2018-11-21T10:40:39.893Z,3.1
2018-11-21T10:41:39.866Z,3.07
2018-11-21T10:42:39.894Z,3.07
2018-11-21T10:43:40.702Z,3.06
2018-11-21T10:44:39.840Z,3.08
2018-11-21T10:45:40.125Z,3.08
2018-11-21T10:46:39.977Z,3.12
2018-11-21T10:47:40.037Z,3.12
2018-11-21T10:48:39.952Z,3.12
2018-11-21T10:49:39.956Z,3.11
2018-11-21T10:50:40.108Z,3.12
2018-11-21T10:51:40.013Z,3.11
2018-11-21T10:52:40.054Z,3.12
2018-11-21T10:53:40.012Z,3.12
2018-11-21T10:54:40.110Z,3.11
2018-11-21T10:55:42.358Z,3.14
2018-11-21T10:56:39.987Z,3.14
2018-11-21T10:57:39.883Z,3.14
2018-11-21T10:58:39.853Z,3.15
2018-11-21T10:59:39.986Z,3.15
2018-11-21T11:00:39.999Z,3.14
2018-11-21T11:01:39.982Z,3.18
2018-11-21T11:02:40.033Z,3.18
2018-11-21T11:03:39.845Z,3.15
2018-11-21T11:04:39.818Z,3.15
2018-11-21T11:05:40.030Z,3.15
2018-11-21T11:06:40.222Z,3.18
2018-11-21T11:07:39.980Z,3.17
2018-11-21T11:08:39.982Z,3.17
2018-11-21T11:09:39.817Z,3.2
2018-11-21T11:10:39.834Z,3.25
2018-11-21T11:11:39.832Z,3.37
2018-11-21T11:12:40.122Z,3.32
2018-11-21T11:13:39.838Z,3.31
2018-11-21T11:14:39.837Z,3.29
2018-11-21T11:15:39.788Z,3.31
2018-11-21T11:16:39.828Z,3.37
2018-11-21T11:17:40.028Z,3.39
2018-11-21T11:18:39.816Z,3.46
2018-11-21T11:19:39.885Z,3.45
2018-11-21T11:20:39.821Z,3.44
2018-11-21T11:21:39.831Z,3.38
2018-11-21T11:22:39.845Z,3.38
2018-11-21T11:23:39.850Z,3.39
2018-11-21T11:24:39.859Z,3.39
2018-11-21T11:25:39.815Z,3.31
2018-11-21T11:26:40.015Z,3.28
2018-11-21T11:27:39.982Z,3.24
2018-11-21T11:28:39.980Z,3.24
2018-11-21T11:29:39.811Z,3.22
2018-11-21T11:30:39.915Z,3.22
2018-11-21T11:31:39.855Z,3.27
2018-11-21T11:32:40.082Z,3.27
2018-11-21T11:33:40.071Z,3.28
2018-11-21T11:34:40.282Z,3.29
2018-11-21T11:35:40.116Z,3.29
2018-11-21T11:36:40.020Z,3.28
2018-11-21T11:37:40.011Z,3.29
2018-11-21T11:38:39.838Z,3.31
2018-11-21T11:39:39.943Z,3.29
2018-11-21T11:40:39.963Z,3.34
2018-11-21T11:41:40.006Z,3.31
2018-11-21T11:42:39.978Z,3.32
2018-11-21T11:43:40.071Z,3.31
2018-11-21T11:44:39.983Z,3.32
2018-11-21T11:45:39.833Z,3.35
2018-11-21T11:46:39.859Z,3.38
2018-11-21T11:47:39.781Z,3.39
2018-11-21T11:48:40.079Z,3.42
2018-11-21T11:49:39.724Z,3.41
2018-11-21T11:50:40.074Z,3.42
2018-11-21T11:51:39.809Z,3.44
2018-11-21T11:52:39.833Z,3.41
2018-11-21T11:53:40.062Z,3.44
2018-11-21T11:54:39.829Z,3.44
2018-11-21T11:55:39.938Z,3.44
2018-11-21T11:56:40.610Z,3.48
2018-11-21T11:57:40.018Z,3.48
2018-11-21T11:58:40.061Z,3.49
2018-11-21T11:59:39.847Z,3.49
2018-11-21T12:00:39.957Z,3.46
2018-11-21T12:01:39.848Z,3.51
2018-11-21T12:02:39.781Z,3.51
2018-11-21T12:03:39.744Z,3.51
2018-11-21T12:04:39.757Z,3.48
2018-11-21T12:05:39.801Z,3.46
2018-11-21T12:06:39.936Z,3.49
2018-11-21T12:07:39.715Z,3.46
2018-11-21T12:08:39.753Z,3.49
2018-11-21T12:09:39.763Z,3.49
2018-11-21T12:10:39.832Z,3.51
2018-11-21T12:11:39.802Z,3.51
2018-11-21T12:12:40.349Z,3.48
2018-11-21T12:13:39.875Z,3.48
2018-11-21T12:14:39.766Z,3.51
2018-11-21T12:15:40.265Z,3.52
2018-11-21T12:16:40.102Z,3.54
2018-11-21T12:17:39.863Z,3.51
2018-11-21T12:18:39.808Z,3.54
2018-11-21T12:19:39.815Z,3.51
2018-11-21T12:20:39.858Z,3.54
2018-11-21T12:21:39.915Z,3.52
2018-11-21T12:22:39.979Z,3.56
2018-11-21T12:23:39.784Z,3.56
2018-11-21T12:24:39.743Z,3.58
2018-11-21T12:25:39.693Z,3.56
2018-11-21T12:26:39.928Z,3.56
2018-11-21T12:27:39.793Z,3.55
2018-11-21T12:28:40.010Z,3.55
2018-11-21T12:29:42.164Z,3.58
2018-11-21T12:30:39.682Z,3.59
2018-11-21T12:31:39.724Z,3.58
2018-11-21T12:32:39.844Z,3.56
2018-11-21T12:33:40.040Z,3.51
2018-11-21T12:34:39.877Z,3.54
2018-11-21T12:35:39.764Z,3.55
2018-11-21T12:36:39.778Z,3.58
2018-11-21T12:37:39.843Z,3.58
2018-11-21T12:38:39.819Z,3.56
2018-11-21T12:39:39.768Z,3.58
2018-11-21T12:40:39.745Z,3.61
2018-11-21T12:41:39.779Z,3.58
2018-11-21T12:42:39.804Z,3.59
2018-11-21T12:43:39.725Z,3.61
2018-11-21T12:44:39.711Z,3.59
2018-11-21T12:45:39.729Z,3.59
2018-11-21T12:46:39.675Z,3.59
2018-11-21T12:47:39.747Z,3.58
2018-11-21T12:48:39.704Z,3.56
2018-11-21T12:49:39.766Z,3.58
2018-11-21T12:50:39.769Z,3.58
2018-11-21T12:51:39.674Z,3.55
2018-11-21T12:52:39.718Z,3.61
2018-11-21T12:53:39.745Z,3.59
2018-11-21T12:54:39.707Z,3.58
2018-11-21T12:55:39.729Z,3.59
2018-11-21T12:56:39.664Z,3.59
2018-11-21T12:57:39.671Z,3.62
2018-11-21T12:58:39.677Z,3.63
2018-11-21T12:59:39.670Z,3.63
2018-11-21T13:00:39.767Z,3.65
2018-11-21T13:01:39.707Z,3.67
2018-11-21T13:02:39.680Z,3.65
2018-11-21T13:03:39.748Z,3.65
2018-11-21T13:04:39.690Z,3.67
2018-11-21T13:05:39.708Z,3.66
2018-11-21T13:06:39.969Z,3.7
2018-11-21T13:07:39.712Z,3.7
2018-11-21T13:08:39.924Z,3.72
2018-11-21T13:09:39.750Z,3.7
2018-11-21T13:10:39.807Z,3.7
2018-11-21T13:11:39.701Z,3.72
2018-11-21T13:12:40.022Z,3.7
2018-11-21T13:13:39.794Z,3.72
2018-11-21T13:14:40.082Z,3.74
2018-11-21T13:15:43.778Z,3.7
2018-11-21T13:16:39.825Z,3.7
2018-11-21T13:17:40.192Z,3.69
2018-11-21T13:18:39.724Z,3.67
2018-11-21T13:19:39.657Z,3.62
2018-11-21T13:20:39.965Z,3.58
2018-11-21T13:21:39.632Z,3.62